sensor_id;sensor_type;location;lat;lon;timestamp;P1;durP1;ratioP1;P2;durP2;ratioP2
50443;SDS011;36370;52.216;21.142;2022-09-12T00:04:00;7.05;;;3.72;;
50443;SDS011;36370;52.216;21.142;2022-09-12T00:08:03;10.55;;;3.92;;
50443;SDS011;36370;52.216;21.142;2022-09-12T00:12:06;8.52;;;3.60;;
50443;SDS011;36370;52.216;21.142;2022-09-12T00:16:16;6.50;;;3.25;;
50443;SDS011;36370;52.216;21.142;2022-09-12T00:20:20;10.02;;;3.78;;
50443;SDS011;36370;52.216;21.142;2022-09-12T00:24:22;6.28;;;3.55;;
50443;SDS011;36370;52.216;21.142;2022-09-12T00:28:25;5.45;;;3.83;;
50443;SDS011;36370;52.216;21.142;2022-09-12T00:32:27;11.07;;;4.32;;
50443;SDS011;36370;52.216;21.142;2022-09-12T00:36:29;6.03;;;3.63;;
50443;SDS011;36370;52.216;21.142;2022-09-12T00:40:32;9.85;;;4.28;;
50443;SDS011;36370;52.216;21.142;2022-09-12T00:48:39;5.05;;;3.55;;
50443;SDS011;36370;52.216;21.142;2022-09-12T00:53:02;8.55;;;4.35;;
50443;SDS011;36370;52.216;21.142;2022-09-12T00:57:08;6.90;;;4.25;;
50443;SDS011;36370;52.216;21.142;2022-09-12T01:01:12;10.60;;;3.80;;
50443;SDS011;36370;52.216;21.142;2022-09-12T01:05:15;13.57;;;5.13;;
50443;SDS011;36370;52.216;21.142;2022-09-12T01:09:18;6.15;;;3.47;;
50443;SDS011;36370;52.216;21.142;2022-09-12T01:13:23;10.30;;;4.03;;
50443;SDS011;36370;52.216;21.142;2022-09-12T01:17:28;10.02;;;4.00;;
50443;SDS011;36370;52.216;21.142;2022-09-12T01:35:27;11.95;;;3.92;;
50443;SDS011;36370;52.216;21.142;2022-09-12T01:39:25;8.38;;;4.25;;
50443;SDS011;36370;52.216;21.142;2022-09-12T01:48:27;5.53;;;4.10;;
50443;SDS011;36370;52.216;21.142;2022-09-12T01:52:40;10.10;;;4.22;;
50443;SDS011;36370;52.216;21.142;2022-09-12T01:56:49;12.93;;;4.10;;
50443;SDS011;36370;52.216;21.142;2022-09-12T02:01:00;7.63;;;3.73;;
50443;SDS011;36370;52.216;21.142;2022-09-12T02:05:34;8.73;;;4.22;;
50443;SDS011;36370;52.216;21.142;2022-09-12T02:09:43;8.88;;;3.80;;
50443;SDS011;36370;52.216;21.142;2022-09-12T02:13:55;10.90;;;4.07;;
50443;SDS011;36370;52.216;21.142;2022-09-12T02:18:03;12.38;;;3.78;;
50443;SDS011;36370;52.216;21.142;2022-09-12T02:22:08;10.75;;;3.65;;
50443;SDS011;36370;52.216;21.142;2022-09-12T02:31:07;11.95;;;4.18;;
50443;SDS011;36370;52.216;21.142;2022-09-12T02:39:34;13.70;;;4.70;;
50443;SDS011;36370;52.216;21.142;2022-09-12T02:43:37;10.80;;;4.82;;
50443;SDS011;36370;52.216;21.142;2022-09-12T02:47:44;9.05;;;4.57;;
50443;SDS011;36370;52.216;21.142;2022-09-12T02:51:52;9.30;;;4.53;;
50443;SDS011;36370;52.216;21.142;2022-09-12T02:55:54;11.55;;;4.85;;
50443;SDS011;36370;52.216;21.142;2022-09-12T02:59:57;8.82;;;4.68;;
50443;SDS011;36370;52.216;21.142;2022-09-12T03:13:46;8.25;;;4.05;;
50443;SDS011;36370;52.216;21.142;2022-09-12T03:26:01;6.50;;;3.30;;
50443;SDS011;36370;52.216;21.142;2022-09-12T03:30:13;9.77;;;3.50;;
50443;SDS011;36370;52.216;21.142;2022-09-12T03:34:15;6.43;;;3.67;;
50443;SDS011;36370;52.216;21.142;2022-09-12T03:38:18;8.93;;;3.85;;
50443;SDS011;36370;52.216;21.142;2022-09-12T03:42:21;11.82;;;3.50;;
50443;SDS011;36370;52.216;21.142;2022-09-12T03:46:23;10.23;;;4.15;;
50443;SDS011;36370;52.216;21.142;2022-09-12T03:50:25;14.80;;;3.75;;
50443;SDS011;36370;52.216;21.142;2022-09-12T03:54:28;11.93;;;4.32;;
50443;SDS011;36370;52.216;21.142;2022-09-12T03:58:30;7.50;;;4.15;;
50443;SDS011;36370;52.216;21.142;2022-09-12T04:02:33;8.65;;;4.32;;
50443;SDS011;36370;52.216;21.142;2022-09-12T04:06:35;10.07;;;4.70;;
50443;SDS011;36370;52.216;21.142;2022-09-12T04:10:37;9.73;;;5.32;;
50443;SDS011;36370;52.216;21.142;2022-09-12T04:14:40;13.73;;;4.57;;
50443;SDS011;36370;52.216;21.142;2022-09-12T04:18:42;8.45;;;5.28;;
50443;SDS011;36370;52.216;21.142;2022-09-12T04:22:45;10.75;;;5.78;;
50443;SDS011;36370;52.216;21.142;2022-09-12T04:26:47;12.35;;;6.70;;
50443;SDS011;36370;52.216;21.142;2022-09-12T04:30:50;16.08;;;6.60;;
50443;SDS011;36370;52.216;21.142;2022-09-12T04:34:52;11.00;;;7.35;;
50443;SDS011;36370;52.216;21.142;2022-09-12T04:38:54;11.75;;;7.25;;
50443;SDS011;36370;52.216;21.142;2022-09-12T04:42:57;15.45;;;8.82;;
50443;SDS011;36370;52.216;21.142;2022-09-12T04:46:59;11.85;;;7.13;;
50443;SDS011;36370;52.216;21.142;2022-09-12T04:51:20;13.55;;;8.35;;
50443;SDS011;36370;52.216;21.142;2022-09-12T04:55:24;18.05;;;9.00;;
50443;SDS011;36370;52.216;21.142;2022-09-12T04:59:26;20.08;;;10.23;;
50443;SDS011;36370;52.216;21.142;2022-09-12T05:03:35;23.05;;;11.65;;
50443;SDS011;36370;52.216;21.142;2022-09-12T05:07:40;22.42;;;12.02;;
50443;SDS011;36370;52.216;21.142;2022-09-12T05:11:43;22.75;;;11.10;;
50443;SDS011;36370;52.216;21.142;2022-09-12T05:16:06;23.38;;;13.32;;
50443;SDS011;36370;52.216;21.142;2022-09-12T05:20:11;20.85;;;12.68;;
50443;SDS011;36370;52.216;21.142;2022-09-12T05:24:14;19.27;;;13.88;;
50443;SDS011;36370;52.216;21.142;2022-09-12T05:28:16;22.70;;;14.48;;
50443;SDS011;36370;52.216;21.142;2022-09-12T05:32:18;22.63;;;14.77;;
50443;SDS011;36370;52.216;21.142;2022-09-12T05:36:25;20.50;;;13.77;;
50443;SDS011;36370;52.216;21.142;2022-09-12T05:40:30;19.23;;;13.70;;
50443;SDS011;36370;52.216;21.142;2022-09-12T05:44:32;18.77;;;12.52;;
50443;SDS011;36370;52.216;21.142;2022-09-12T05:48:35;22.27;;;12.98;;
50443;SDS011;36370;52.216;21.142;2022-09-12T05:52:38;14.05;;;10.70;;
50443;SDS011;36370;52.216;21.142;2022-09-12T05:56:41;14.38;;;10.68;;
50443;SDS011;36370;52.216;21.142;2022-09-12T06:00:45;17.17;;;10.13;;
50443;SDS011;36370;52.216;21.142;2022-09-12T06:04:47;22.25;;;10.27;;
50443;SDS011;36370;52.216;21.142;2022-09-12T06:08:50;20.23;;;11.10;;
50443;SDS011;36370;52.216;21.142;2022-09-12T06:12:54;20.00;;;10.27;;
50443;SDS011;36370;52.216;21.142;2022-09-12T06:16:56;15.32;;;10.00;;
50443;SDS011;36370;52.216;21.142;2022-09-12T06:21:02;13.38;;;9.48;;
50443;SDS011;36370;52.216;21.142;2022-09-12T06:25:08;16.20;;;9.05;;
50443;SDS011;36370;52.216;21.142;2022-09-12T06:29:10;13.85;;;9.13;;
50443;SDS011;36370;52.216;21.142;2022-09-12T06:33:13;14.88;;;8.52;;
50443;SDS011;36370;52.216;21.142;2022-09-12T06:37:15;15.77;;;8.50;;
50443;SDS011;36370;52.216;21.142;2022-09-12T06:41:18;15.90;;;9.07;;
50443;SDS011;36370;52.216;21.142;2022-09-12T06:45:20;13.23;;;8.10;;
50443;SDS011;36370;52.216;21.142;2022-09-12T06:49:23;13.73;;;8.75;;
50443;SDS011;36370;52.216;21.142;2022-09-12T06:53:25;12.23;;;8.23;;
50443;SDS011;36370;52.216;21.142;2022-09-12T06:57:29;14.20;;;8.15;;
50443;SDS011;36370;52.216;21.142;2022-09-12T07:01:32;18.77;;;9.38;;
50443;SDS011;36370;52.216;21.142;2022-09-12T07:05:34;12.35;;;7.03;;
50443;SDS011;36370;52.216;21.142;2022-09-12T07:09:36;12.57;;;7.68;;
50443;SDS011;36370;52.216;21.142;2022-09-12T07:13:39;17.40;;;8.20;;
50443;SDS011;36370;52.216;21.142;2022-09-12T07:17:42;13.73;;;8.43;;
50443;SDS011;36370;52.216;21.142;2022-09-12T07:21:45;11.77;;;7.05;;
50443;SDS011;36370;52.216;21.142;2022-09-12T07:25:53;12.02;;;7.30;;
50443;SDS011;36370;52.216;21.142;2022-09-12T07:29:59;12.38;;;7.25;;
50443;SDS011;36370;52.216;21.142;2022-09-12T07:34:04;14.38;;;8.43;;
50443;SDS011;36370;52.216;21.142;2022-09-12T07:38:07;12.32;;;7.93;;
50443;SDS011;36370;52.216;21.142;2022-09-12T07:42:10;9.60;;;6.30;;
50443;SDS011;36370;52.216;21.142;2022-09-12T07:46:13;11.25;;;7.05;;
50443;SDS011;36370;52.216;21.142;2022-09-12T07:50:15;11.25;;;6.85;;
50443;SDS011;36370;52.216;21.142;2022-09-12T07:54:17;13.90;;;6.72;;
50443;SDS011;36370;52.216;21.142;2022-09-12T07:58:21;12.02;;;7.40;;
50443;SDS011;36370;52.216;21.142;2022-09-12T08:02:26;11.82;;;6.90;;
50443;SDS011;36370;52.216;21.142;2022-09-12T08:06:29;14.13;;;7.57;;
50443;SDS011;36370;52.216;21.142;2022-09-12T08:10:35;11.55;;;6.55;;
50443;SDS011;36370;52.216;21.142;2022-09-12T08:14:37;12.63;;;6.75;;
50443;SDS011;36370;52.216;21.142;2022-09-12T08:18:40;11.48;;;6.60;;
50443;SDS011;36370;52.216;21.142;2022-09-12T08:22:43;13.63;;;8.18;;
50443;SDS011;36370;52.216;21.142;2022-09-12T08:26:45;15.63;;;7.63;;
50443;SDS011;36370;52.216;21.142;2022-09-12T08:30:47;10.68;;;6.78;;
50443;SDS011;36370;52.216;21.142;2022-09-12T08:34:49;14.30;;;7.35;;
50443;SDS011;36370;52.216;21.142;2022-09-12T08:38:55;11.10;;;6.50;;
50443;SDS011;36370;52.216;21.142;2022-09-12T08:43:14;13.40;;;7.25;;
50443;SDS011;36370;52.216;21.142;2022-09-12T08:47:30;7.85;;;5.72;;
50443;SDS011;36370;52.216;21.142;2022-09-12T08:51:44;10.40;;;6.65;;
50443;SDS011;36370;52.216;21.142;2022-09-12T08:55:51;14.13;;;5.78;;
50443;SDS011;36370;52.216;21.142;2022-09-12T08:59:55;7.78;;;6.03;;
50443;SDS011;36370;52.216;21.142;2022-09-12T09:12:35;8.23;;;5.27;;
50443;SDS011;36370;52.216;21.142;2022-09-12T09:16:45;8.45;;;4.53;;
50443;SDS011;36370;52.216;21.142;2022-09-12T09:24:58;12.05;;;5.25;;
50443;SDS011;36370;52.216;21.142;2022-09-12T09:29:09;12.77;;;5.38;;
50443;SDS011;36370;52.216;21.142;2022-09-12T09:33:22;7.95;;;5.05;;
50443;SDS011;36370;52.216;21.142;2022-09-12T09:46:10;11.18;;;5.20;;
50443;SDS011;36370;52.216;21.142;2022-09-12T09:50:15;13.48;;;5.38;;
50443;SDS011;36370;52.216;21.142;2022-09-12T09:54:25;12.80;;;5.47;;
50443;SDS011;36370;52.216;21.142;2022-09-12T09:58:41;9.88;;;4.68;;
50443;SDS011;36370;52.216;21.142;2022-09-12T10:02:57;10.18;;;4.65;;
50443;SDS011;36370;52.216;21.142;2022-09-12T10:07:18;8.68;;;4.10;;
50443;SDS011;36370;52.216;21.142;2022-09-12T10:11:21;9.18;;;4.43;;
50443;SDS011;36370;52.216;21.142;2022-09-12T10:15:27;7.45;;;5.03;;
50443;SDS011;36370;52.216;21.142;2022-09-12T10:19:34;12.82;;;4.57;;
50443;SDS011;36370;52.216;21.142;2022-09-12T10:23:38;10.05;;;4.45;;
50443;SDS011;36370;52.216;21.142;2022-09-12T10:27:43;10.30;;;5.32;;
50443;SDS011;36370;52.216;21.142;2022-09-12T10:31:50;9.10;;;4.82;;
50443;SDS011;36370;52.216;21.142;2022-09-12T10:35:58;10.93;;;4.75;;
50443;SDS011;36370;52.216;21.142;2022-09-12T10:40:02;9.18;;;4.55;;
50443;SDS011;36370;52.216;21.142;2022-09-12T10:44:07;8.10;;;4.28;;
50443;SDS011;36370;52.216;21.142;2022-09-12T10:52:23;7.30;;;4.15;;
50443;SDS011;36370;52.216;21.142;2022-09-12T10:56:30;9.93;;;5.43;;
50443;SDS011;36370;52.216;21.142;2022-09-12T11:00:35;8.48;;;4.88;;
50443;SDS011;36370;52.216;21.142;2022-09-12T11:04:50;6.97;;;4.18;;
50443;SDS011;36370;52.216;21.142;2022-09-12T11:13:28;9.90;;;4.60;;
50443;SDS011;36370;52.216;21.142;2022-09-12T11:27:12;10.18;;;5.53;;
50443;SDS011;36370;52.216;21.142;2022-09-12T11:41:04;10.27;;;4.78;;
50443;SDS011;36370;52.216;21.142;2022-09-12T11:45:12;9.18;;;4.50;;
50443;SDS011;36370;52.216;21.142;2022-09-12T11:53:38;11.80;;;4.65;;
50443;SDS011;36370;52.216;21.142;2022-09-12T11:57:54;8.50;;;4.80;;
50443;SDS011;36370;52.216;21.142;2022-09-12T12:01:59;10.57;;;5.07;;
50443;SDS011;36370;52.216;21.142;2022-09-12T12:06:06;16.67;;;4.35;;
50443;SDS011;36370;52.216;21.142;2022-09-12T12:10:24;7.38;;;4.30;;
50443;SDS011;36370;52.216;21.142;2022-09-12T12:18:51;6.97;;;3.70;;
50443;SDS011;36370;52.216;21.142;2022-09-12T12:22:56;8.55;;;3.80;;
50443;SDS011;36370;52.216;21.142;2022-09-12T12:27:02;10.63;;;4.32;;
50443;SDS011;36370;52.216;21.142;2022-09-12T12:31:23;13.63;;;3.85;;
50443;SDS011;36370;52.216;21.142;2022-09-12T12:35:35;7.93;;;3.03;;
50443;SDS011;36370;52.216;21.142;2022-09-12T12:43:40;7.13;;;4.32;;
50443;SDS011;36370;52.216;21.142;2022-09-12T12:47:43;6.85;;;3.38;;
50443;SDS011;36370;52.216;21.142;2022-09-12T12:51:53;6.65;;;3.85;;
50443;SDS011;36370;52.216;21.142;2022-09-12T12:55:59;9.40;;;3.92;;
50443;SDS011;36370;52.216;21.142;2022-09-12T13:00:07;9.05;;;3.95;;
50443;SDS011;36370;52.216;21.142;2022-09-12T13:04:27;7.85;;;3.85;;
50443;SDS011;36370;52.216;21.142;2022-09-12T13:08:32;7.60;;;3.95;;
50443;SDS011;36370;52.216;21.142;2022-09-12T13:12:44;6.07;;;4.05;;
50443;SDS011;36370;52.216;21.142;2022-09-12T13:16:58;5.97;;;3.67;;
50443;SDS011;36370;52.216;21.142;2022-09-12T13:21:06;5.50;;;3.78;;
50443;SDS011;36370;52.216;21.142;2022-09-12T13:29:29;7.68;;;3.80;;
50443;SDS011;36370;52.216;21.142;2022-09-12T13:45:47;6.20;;;3.72;;
50443;SDS011;36370;52.216;21.142;2022-09-12T13:49:51;6.30;;;3.83;;
50443;SDS011;36370;52.216;21.142;2022-09-12T13:53:56;8.10;;;3.70;;
50443;SDS011;36370;52.216;21.142;2022-09-12T13:58:01;7.82;;;4.72;;
50443;SDS011;36370;52.216;21.142;2022-09-12T14:02:18;7.85;;;4.63;;
50443;SDS011;36370;52.216;21.142;2022-09-12T14:06:23;5.60;;;4.22;;
50443;SDS011;36370;52.216;21.142;2022-09-12T14:10:27;5.90;;;4.28;;
50443;SDS011;36370;52.216;21.142;2022-09-12T14:14:36;8.75;;;4.35;;
50443;SDS011;36370;52.216;21.142;2022-09-12T14:19:10;5.05;;;4.00;;
50443;SDS011;36370;52.216;21.142;2022-09-12T14:23:17;6.88;;;4.18;;
50443;SDS011;36370;52.216;21.142;2022-09-12T14:27:30;6.53;;;4.63;;
50443;SDS011;36370;52.216;21.142;2022-09-12T14:31:46;6.07;;;4.25;;
50443;SDS011;36370;52.216;21.142;2022-09-12T14:36:09;6.22;;;4.50;;
50443;SDS011;36370;52.216;21.142;2022-09-12T14:40:20;7.63;;;5.13;;
50443;SDS011;36370;52.216;21.142;2022-09-12T14:44:24;7.97;;;4.82;;
50443;SDS011;36370;52.216;21.142;2022-09-12T14:48:33;7.28;;;5.00;;
50443;SDS011;36370;52.216;21.142;2022-09-12T14:52:40;7.78;;;4.75;;
50443;SDS011;36370;52.216;21.142;2022-09-12T14:56:52;9.00;;;5.13;;
50443;SDS011;36370;52.216;21.142;2022-09-12T15:01:00;11.23;;;5.30;;
50443;SDS011;36370;52.216;21.142;2022-09-12T15:09:06;10.98;;;5.32;;
50443;SDS011;36370;52.216;21.142;2022-09-12T15:13:16;7.15;;;5.18;;
50443;SDS011;36370;52.216;21.142;2022-09-12T15:17:20;7.72;;;5.30;;
50443;SDS011;36370;52.216;21.142;2022-09-12T15:21:22;11.13;;;5.78;;
50443;SDS011;36370;52.216;21.142;2022-09-12T15:25:25;6.82;;;4.80;;
50443;SDS011;36370;52.216;21.142;2022-09-12T15:29:27;7.80;;;5.28;;
50443;SDS011;36370;52.216;21.142;2022-09-12T15:33:29;10.50;;;5.07;;
50443;SDS011;36370;52.216;21.142;2022-09-12T15:37:32;11.13;;;5.72;;
50443;SDS011;36370;52.216;21.142;2022-09-12T15:41:35;10.75;;;5.88;;
50443;SDS011;36370;52.216;21.142;2022-09-12T15:45:42;10.00;;;5.85;;
50443;SDS011;36370;52.216;21.142;2022-09-12T15:49:45;7.72;;;5.90;;
50443;SDS011;36370;52.216;21.142;2022-09-12T15:53:47;8.40;;;6.10;;
50443;SDS011;36370;52.216;21.142;2022-09-12T15:57:51;13.07;;;7.07;;
50443;SDS011;36370;52.216;21.142;2022-09-12T16:01:54;11.13;;;6.00;;
50443;SDS011;36370;52.216;21.142;2022-09-12T16:05:57;10.70;;;5.72;;
50443;SDS011;36370;52.216;21.142;2022-09-12T16:10:02;9.80;;;6.00;;
50443;SDS011;36370;52.216;21.142;2022-09-12T16:14:05;11.48;;;5.68;;
50443;SDS011;36370;52.216;21.142;2022-09-12T16:18:07;12.80;;;5.90;;
50443;SDS011;36370;52.216;21.142;2022-09-12T16:22:09;11.82;;;6.97;;
50443;SDS011;36370;52.216;21.142;2022-09-12T16:26:11;11.27;;;5.72;;
50443;SDS011;36370;52.216;21.142;2022-09-12T16:30:14;11.88;;;5.93;;
50443;SDS011;36370;52.216;21.142;2022-09-12T16:34:17;12.75;;;6.55;;
50443;SDS011;36370;52.216;21.142;2022-09-12T16:38:20;15.77;;;8.18;;
50443;SDS011;36370;52.216;21.142;2022-09-12T16:42:23;14.55;;;7.75;;
50443;SDS011;36370;52.216;21.142;2022-09-12T16:46:25;14.60;;;8.82;;
50443;SDS011;36370;52.216;21.142;2022-09-12T16:50:31;13.02;;;8.65;;
50443;SDS011;36370;52.216;21.142;2022-09-12T16:54:33;12.98;;;8.52;;
50443;SDS011;36370;52.216;21.142;2022-09-12T16:58:37;14.52;;;7.45;;
50443;SDS011;36370;52.216;21.142;2022-09-12T17:02:43;15.23;;;7.63;;
50443;SDS011;36370;52.216;21.142;2022-09-12T17:06:45;14.32;;;9.02;;
50443;SDS011;36370;52.216;21.142;2022-09-12T17:10:47;14.27;;;8.82;;
50443;SDS011;36370;52.216;21.142;2022-09-12T17:14:50;12.55;;;8.50;;
50443;SDS011;36370;52.216;21.142;2022-09-12T17:18:52;14.90;;;10.02;;
50443;SDS011;36370;52.216;21.142;2022-09-12T17:22:55;21.48;;;14.45;;
50443;SDS011;36370;52.216;21.142;2022-09-12T17:26:58;82.35;;;46.33;;
50443;SDS011;36370;52.216;21.142;2022-09-12T17:31:01;101.55;;;60.95;;
50443;SDS011;36370;52.216;21.142;2022-09-12T17:35:06;53.13;;;34.70;;
50443;SDS011;36370;52.216;21.142;2022-09-12T17:39:10;100.43;;;57.22;;
50443;SDS011;36370;52.216;21.142;2022-09-12T17:43:13;79.15;;;46.22;;
50443;SDS011;36370;52.216;21.142;2022-09-12T17:47:16;136.18;;;77.35;;
50443;SDS011;36370;52.216;21.142;2022-09-12T17:51:18;99.28;;;56.28;;
50443;SDS011;36370;52.216;21.142;2022-09-12T17:55:21;136.35;;;71.85;;
50443;SDS011;36370;52.216;21.142;2022-09-12T17:59:24;78.50;;;44.72;;
50443;SDS011;36370;52.216;21.142;2022-09-12T18:03:26;59.85;;;36.03;;
50443;SDS011;36370;52.216;21.142;2022-09-12T18:07:29;62.60;;;40.55;;
50443;SDS011;36370;52.216;21.142;2022-09-12T18:11:31;51.38;;;30.30;;
50443;SDS011;36370;52.216;21.142;2022-09-12T18:15:34;38.75;;;25.42;;
50443;SDS011;36370;52.216;21.142;2022-09-12T18:19:37;27.77;;;19.20;;
50443;SDS011;36370;52.216;21.142;2022-09-12T18:23:39;26.95;;;17.60;;
50443;SDS011;36370;52.216;21.142;2022-09-12T18:27:41;26.00;;;16.38;;
50443;SDS011;36370;52.216;21.142;2022-09-12T18:31:45;27.92;;;16.60;;
50443;SDS011;36370;52.216;21.142;2022-09-12T18:35:47;21.75;;;13.73;;
50443;SDS011;36370;52.216;21.142;2022-09-12T18:39:49;22.15;;;15.70;;
50443;SDS011;36370;52.216;21.142;2022-09-12T18:43:53;22.08;;;15.68;;
50443;SDS011;36370;52.216;21.142;2022-09-12T18:47:56;22.88;;;14.32;;
50443;SDS011;36370;52.216;21.142;2022-09-12T18:51:58;22.40;;;15.27;;
50443;SDS011;36370;52.216;21.142;2022-09-12T18:56:02;24.83;;;15.02;;
50443;SDS011;36370;52.216;21.142;2022-09-12T19:04:14;23.70;;;15.70;;
50443;SDS011;36370;52.216;21.142;2022-09-12T19:08:17;25.10;;;14.02;;
50443;SDS011;36370;52.216;21.142;2022-09-12T19:12:19;21.65;;;13.60;;
50443;SDS011;36370;52.216;21.142;2022-09-12T19:16:22;21.25;;;13.35;;
50443;SDS011;36370;52.216;21.142;2022-09-12T19:20:27;18.58;;;12.23;;
50443;SDS011;36370;52.216;21.142;2022-09-12T19:24:29;24.63;;;15.35;;
50443;SDS011;36370;52.216;21.142;2022-09-12T19:28:32;21.65;;;13.20;;
50443;SDS011;36370;52.216;21.142;2022-09-12T19:32:35;36.63;;;25.98;;
50443;SDS011;36370;52.216;21.142;2022-09-12T19:36:37;69.43;;;40.15;;
50443;SDS011;36370;52.216;21.142;2022-09-12T19:40:55;76.10;;;38.13;;
50443;SDS011;36370;52.216;21.142;2022-09-12T19:45:01;83.20;;;40.13;;
50443;SDS011;36370;52.216;21.142;2022-09-12T19:49:03;80.35;;;38.92;;
50443;SDS011;36370;52.216;21.142;2022-09-12T19:53:05;61.15;;;34.30;;
50443;SDS011;36370;52.216;21.142;2022-09-12T19:57:07;64.40;;;32.40;;
50443;SDS011;36370;52.216;21.142;2022-09-12T20:01:11;45.63;;;26.38;;
50443;SDS011;36370;52.216;21.142;2022-09-12T20:05:18;55.83;;;28.33;;
50443;SDS011;36370;52.216;21.142;2022-09-12T20:09:21;44.97;;;23.83;;
50443;SDS011;36370;52.216;21.142;2022-09-12T20:13:23;45.70;;;23.83;;
50443;SDS011;36370;52.216;21.142;2022-09-12T20:17:25;34.17;;;20.95;;
50443;SDS011;36370;52.216;21.142;2022-09-12T20:21:28;37.88;;;21.10;;
50443;SDS011;36370;52.216;21.142;2022-09-12T20:25:33;37.80;;;22.58;;
50443;SDS011;36370;52.216;21.142;2022-09-12T20:29:35;33.03;;;21.10;;
50443;SDS011;36370;52.216;21.142;2022-09-12T20:33:37;31.10;;;20.88;;
50443;SDS011;36370;52.216;21.142;2022-09-12T20:37:40;36.55;;;20.63;;
50443;SDS011;36370;52.216;21.142;2022-09-12T20:41:42;29.40;;;18.75;;
50443;SDS011;36370;52.216;21.142;2022-09-12T20:45:44;25.77;;;17.88;;
50443;SDS011;36370;52.216;21.142;2022-09-12T20:49:46;31.80;;;17.63;;
50443;SDS011;36370;52.216;21.142;2022-09-12T20:53:51;28.42;;;17.67;;
50443;SDS011;36370;52.216;21.142;2022-09-12T20:58:01;21.85;;;16.45;;
50443;SDS011;36370;52.216;21.142;2022-09-12T21:02:03;26.17;;;16.92;;
50443;SDS011;36370;52.216;21.142;2022-09-12T21:06:06;28.88;;;18.40;;
50443;SDS011;36370;52.216;21.142;2022-09-12T21:10:09;30.92;;;19.30;;
50443;SDS011;36370;52.216;21.142;2022-09-12T21:14:12;28.45;;;19.15;;
50443;SDS011;36370;52.216;21.142;2022-09-12T21:18:14;33.92;;;20.60;;
50443;SDS011;36370;52.216;21.142;2022-09-12T21:22:16;22.77;;;16.05;;
50443;SDS011;36370;52.216;21.142;2022-09-12T21:26:18;28.75;;;19.38;;
50443;SDS011;36370;52.216;21.142;2022-09-12T21:30:21;30.35;;;19.88;;
50443;SDS011;36370;52.216;21.142;2022-09-12T21:34:23;33.35;;;20.27;;
50443;SDS011;36370;52.216;21.142;2022-09-12T21:38:25;30.05;;;19.92;;
50443;SDS011;36370;52.216;21.142;2022-09-12T21:42:27;35.17;;;21.48;;
50443;SDS011;36370;52.216;21.142;2022-09-12T21:46:30;36.22;;;20.40;;
50443;SDS011;36370;52.216;21.142;2022-09-12T21:50:32;36.85;;;21.83;;
50443;SDS011;36370;52.216;21.142;2022-09-12T21:54:34;41.08;;;24.95;;
50443;SDS011;36370;52.216;21.142;2022-09-12T21:58:37;42.78;;;25.92;;
50443;SDS011;36370;52.216;21.142;2022-09-12T22:02:39;38.83;;;24.30;;
50443;SDS011;36370;52.216;21.142;2022-09-12T22:06:41;31.80;;;21.23;;
50443;SDS011;36370;52.216;21.142;2022-09-12T22:10:44;37.75;;;24.30;;
50443;SDS011;36370;52.216;21.142;2022-09-12T22:14:46;41.33;;;25.38;;
50443;SDS011;36370;52.216;21.142;2022-09-12T22:18:49;36.53;;;24.98;;
50443;SDS011;36370;52.216;21.142;2022-09-12T22:22:53;39.80;;;27.25;;
50443;SDS011;36370;52.216;21.142;2022-09-12T22:27:13;31.70;;;21.92;;
50443;SDS011;36370;52.216;21.142;2022-09-12T22:31:15;36.70;;;24.48;;
50443;SDS011;36370;52.216;21.142;2022-09-12T22:35:18;36.97;;;24.67;;
50443;SDS011;36370;52.216;21.142;2022-09-12T22:39:22;39.05;;;24.40;;
50443;SDS011;36370;52.216;21.142;2022-09-12T22:43:24;38.28;;;23.98;;
50443;SDS011;36370;52.216;21.142;2022-09-12T22:47:30;48.38;;;29.63;;
50443;SDS011;36370;52.216;21.142;2022-09-12T22:51:33;47.30;;;26.27;;
50443;SDS011;36370;52.216;21.142;2022-09-12T22:55:36;43.40;;;25.63;;
50443;SDS011;36370;52.216;21.142;2022-09-12T22:59:38;46.47;;;25.13;;
50443;SDS011;36370;52.216;21.142;2022-09-12T23:03:40;46.00;;;25.10;;
50443;SDS011;36370;52.216;21.142;2022-09-12T23:07:43;52.05;;;28.08;;
50443;SDS011;36370;52.216;21.142;2022-09-12T23:11:45;49.83;;;24.73;;
50443;SDS011;36370;52.216;21.142;2022-09-12T23:15:47;49.05;;;27.00;;
50443;SDS011;36370;52.216;21.142;2022-09-12T23:20:02;54.13;;;29.95;;
50443;SDS011;36370;52.216;21.142;2022-09-12T23:24:05;46.83;;;27.67;;
50443;SDS011;36370;52.216;21.142;2022-09-12T23:28:08;45.35;;;26.17;;
50443;SDS011;36370;52.216;21.142;2022-09-12T23:32:10;52.70;;;29.15;;
50443;SDS011;36370;52.216;21.142;2022-09-12T23:36:12;45.55;;;26.00;;
50443;SDS011;36370;52.216;21.142;2022-09-12T23:40:15;59.97;;;30.75;;
50443;SDS011;36370;52.216;21.142;2022-09-12T23:44:17;41.08;;;26.02;;
50443;SDS011;36370;52.216;21.142;2022-09-12T23:48:20;44.85;;;27.48;;
50443;SDS011;36370;52.216;21.142;2022-09-12T23:52:22;43.20;;;26.45;;
50443;SDS011;36370;52.216;21.142;2022-09-12T23:56:24;43.28;;;26.55;;
